createdAt,value
2019-04-10T00:04:36.965Z,5.60
2019-04-10T00:09:33.047Z,5.59
2019-04-10T00:14:28.975Z,5.52
2019-04-10T00:19:24.928Z,5.38
2019-04-10T00:24:21.945Z,5.25
2019-04-10T00:29:18.275Z,5.27
2019-04-10T00:34:14.232Z,5.26
2019-04-10T00:39:10.567Z,5.16
2019-04-10T00:44:07.715Z,5.10
2019-04-10T00:49:03.848Z,5.11
2019-04-10T00:54:01.263Z,5.00
2019-04-10T00:58:57.578Z,5.04
2019-04-10T01:03:53.918Z,4.88
2019-04-10T01:08:51.038Z,4.79
2019-04-10T01:13:47.446Z,4.59
2019-04-10T01:18:43.642Z,4.65
2019-04-10T01:23:47.264Z,4.68
2019-04-10T01:28:43.298Z,4.48
2019-04-10T01:33:39.615Z,4.28
2019-04-10T01:38:35.609Z,4.37
2019-04-10T01:43:31.537Z,4.32
2019-04-10T01:48:27.976Z,4.31
2019-04-10T01:53:24.103Z,4.21
2019-04-10T01:58:21.829Z,4.21
2019-04-10T02:03:18.100Z,3.94
2019-04-10T02:08:16.058Z,3.97
2019-04-10T02:13:11.969Z,4.02
2019-04-10T02:18:08.862Z,3.96
2019-04-10T02:23:05.843Z,3.76
2019-04-10T02:28:02.773Z,3.63
2019-04-10T02:32:59.784Z,3.60
2019-04-10T02:37:56.648Z,3.54
2019-04-10T02:42:54.713Z,3.41
2019-04-10T02:47:51.036Z,3.43
2019-04-10T02:52:50.110Z,3.38
2019-04-10T02:57:45.958Z,3.43
2019-04-10T03:02:42.959Z,3.28
2019-04-10T03:07:40.341Z,3.26
2019-04-10T03:12:38.562Z,3.03
2019-04-10T03:17:34.940Z,3.07
2019-04-10T03:22:31.096Z,3.06
2019-04-10T03:27:28.035Z,2.94
2019-04-10T03:32:44.458Z,2.90
2019-04-10T03:37:39.056Z,2.86
2019-04-10T03:42:35.016Z,2.74
2019-04-10T03:47:31.334Z,2.80
2019-04-10T03:52:27.490Z,2.79
2019-04-10T03:57:24.613Z,2.76
2019-04-10T04:02:21.718Z,2.73
2019-04-10T04:07:18.220Z,2.63
2019-04-10T04:12:14.737Z,2.66
2019-04-10T04:17:11.536Z,2.63
2019-04-10T04:22:10.125Z,2.50
2019-04-10T04:27:08.968Z,2.50
2019-04-10T04:32:06.922Z,2.51
2019-04-10T04:37:05.072Z,2.51
2019-04-10T04:42:01.652Z,2.46
2019-04-10T04:46:59.137Z,2.42
2019-04-10T04:51:56.018Z,2.32
2019-04-10T04:56:52.555Z,2.30
2019-04-10T05:01:48.900Z,2.26
2019-04-10T05:06:45.835Z,2.20
2019-04-10T05:11:42.687Z,2.26
2019-04-10T05:16:39.554Z,2.39
2019-04-10T05:21:35.636Z,2.68
2019-04-10T05:26:32.338Z,2.60
2019-04-10T05:31:28.303Z,3.64
2019-04-10T05:36:24.197Z,3.85
2019-04-10T05:41:20.121Z,2.82
2019-04-10T05:46:16.514Z,3.73
2019-04-10T05:51:12.692Z,4.29
2019-04-10T05:56:08.615Z,4.72
2019-04-10T06:01:06.045Z,3.30
2019-04-10T06:06:02.175Z,4.52
2019-04-10T06:10:58.254Z,4.34
2019-04-10T06:15:55.090Z,3.75
2019-04-10T06:20:51.159Z,4.38
2019-04-10T06:25:47.828Z,4.65
2019-04-10T06:30:43.935Z,4.08
2019-04-10T06:35:39.948Z,4.14
2019-04-10T06:40:35.963Z,4.48
2019-04-10T06:45:31.890Z,4.71
2019-04-10T06:50:29.427Z,4.58
2019-04-10T06:55:25.659Z,4.66
2019-04-10T07:00:21.588Z,5.45
2019-04-10T07:05:17.509Z,5.46
2019-04-10T07:10:26.134Z,5.20
2019-04-10T07:15:14.628Z,5.49
2019-04-10T07:20:11.587Z,5.68
2019-04-10T07:25:10.366Z,5.90
2019-04-10T07:30:09.732Z,6.72
2019-04-10T07:35:08.858Z,6.87
2019-04-10T07:40:06.062Z,6.59
2019-04-10T07:45:04.074Z,6.78
2019-04-10T07:50:02.185Z,6.70
2019-04-10T07:54:58.698Z,6.72
2019-04-10T07:59:54.825Z,6.64
2019-04-10T08:04:51.659Z,6.76
2019-04-10T08:09:47.705Z,6.69
2019-04-10T08:14:44.271Z,7.13
2019-04-10T08:19:41.154Z,7.44
2019-04-10T08:24:37.147Z,7.59
2019-04-10T08:29:33.073Z,7.09
2019-04-10T08:34:29.026Z,6.91
2019-04-10T08:39:35.318Z,7.63
2019-04-10T08:44:22.920Z,7.61
2019-04-10T08:49:18.841Z,7.15
2019-04-10T08:54:16.199Z,7.61
2019-04-10T08:59:12.346Z,8.23
2019-04-10T09:04:08.277Z,8.25
2019-04-10T09:09:05.835Z,8.82
2019-04-10T09:14:01.780Z,8.08
2019-04-10T09:18:57.927Z,8.82
2019-04-10T09:23:57.433Z,9.39
2019-04-10T09:28:53.392Z,8.58
2019-04-10T09:33:49.574Z,9.22
2019-04-10T09:38:45.586Z,9.54
2019-04-10T09:43:42.157Z,9.60
2019-04-10T09:48:38.141Z,9.08
2019-04-10T09:53:37.185Z,9.47
2019-04-10T09:58:33.970Z,8.94
2019-04-10T10:03:30.325Z,8.47
2019-04-10T10:08:26.862Z,9.77
2019-04-10T10:13:23.550Z,9.70
2019-04-10T10:18:19.568Z,10.30
2019-04-10T10:23:19.891Z,10.66
2019-04-10T10:28:15.982Z,10.26
2019-04-10T10:33:13.126Z,10.24
2019-04-10T10:38:09.307Z,10.07
2019-04-10T10:43:05.233Z,9.99
2019-04-10T10:48:03.231Z,8.95
2019-04-10T10:53:00.317Z,9.51
2019-04-10T10:57:57.577Z,10.42
2019-04-10T11:02:54.422Z,10.83
2019-04-10T11:07:55.821Z,11.15
2019-04-10T11:12:54.194Z,10.89
2019-04-10T11:17:52.120Z,11.25
2019-04-10T11:22:51.338Z,11.60
2019-04-10T11:27:51.549Z,12.87
2019-04-10T11:32:50.744Z,10.79
2019-04-10T11:42:48.463Z,10.83
2019-04-10T11:47:47.488Z,10.43
2019-04-10T11:57:46.939Z,10.36
2019-04-10T12:02:45.871Z,10.54
2019-04-10T12:08:09.559Z,11.02
2019-04-10T12:12:39.025Z,10.82
2019-04-10T12:17:35.836Z,11.48
2019-04-10T12:22:31.936Z,11.99
2019-04-10T12:27:27.893Z,11.36
2019-04-10T12:32:24.762Z,12.05
2019-04-10T12:37:20.955Z,12.43
2019-04-10T12:42:16.957Z,12.34
2019-04-10T12:47:13.427Z,12.96
2019-04-10T12:52:10.190Z,11.98
2019-04-10T12:57:06.473Z,12.75
2019-04-10T13:02:02.931Z,12.09
2019-04-10T13:06:59.079Z,11.88
2019-04-10T13:11:55.077Z,12.34
2019-04-10T13:16:52.193Z,10.73
2019-04-10T13:21:48.176Z,10.84
2019-04-10T13:26:44.117Z,10.78
2019-04-10T13:31:40.144Z,11.42
2019-04-10T13:36:36.171Z,11.12
2019-04-10T13:41:32.422Z,11.58
2019-04-10T13:46:28.965Z,12.39
2019-04-10T13:51:25.484Z,11.73
2019-04-10T13:56:21.578Z,12.00
2019-04-10T14:01:19.679Z,12.44
2019-04-10T14:06:17.129Z,12.85
2019-04-10T14:11:13.318Z,13.27
2019-04-10T14:16:09.349Z,11.80
2019-04-10T14:21:11.061Z,11.28
2019-04-10T14:26:22.547Z,11.64
2019-04-10T14:31:20.650Z,12.57
2019-04-10T14:36:16.681Z,11.09
2019-04-10T14:41:13.652Z,12.39
2019-04-10T14:46:10.327Z,11.65
2019-04-10T14:51:06.439Z,11.91
2019-04-10T14:56:04.060Z,11.38
2019-04-10T15:01:02.669Z,12.04
2019-04-10T15:06:01.148Z,11.80
2019-04-10T15:11:00.343Z,11.78
2019-04-10T15:15:58.729Z,11.35
2019-04-10T15:20:56.680Z,11.58
2019-04-10T15:25:52.667Z,11.50
2019-04-10T15:30:48.686Z,11.28
2019-04-10T15:35:44.792Z,11.17
2019-04-10T15:40:42.011Z,11.92
2019-04-10T15:45:38.050Z,11.96
2019-04-10T15:50:34.670Z,12.08
2019-04-10T15:55:32.188Z,11.53
2019-04-10T16:00:29.381Z,11.05
2019-04-10T16:05:25.761Z,11.87
2019-04-10T16:10:26.544Z,11.11
2019-04-10T16:15:22.669Z,11.57
2019-04-10T16:20:21.652Z,12.28
2019-04-10T16:25:22.399Z,12.58
2019-04-10T16:30:20.343Z,12.89
2019-04-10T16:35:16.807Z,12.07
2019-04-10T16:40:18.538Z,12.61
2019-04-10T16:45:17.618Z,12.18
2019-04-10T16:50:14.860Z,13.33
2019-04-10T16:55:13.633Z,12.30
2019-04-10T17:00:14.158Z,13.92
2019-04-10T17:05:10.213Z,14.04
2019-04-10T17:10:15.969Z,14.15
2019-04-10T17:20:26.653Z,14.89
2019-04-10T17:25:24.334Z,15.20
2019-04-10T17:30:21.984Z,14.83
2019-04-10T17:35:19.313Z,14.40
2019-04-10T17:40:28.515Z,14.24
2019-04-10T17:45:15.136Z,14.05
2019-04-10T17:50:14.166Z,12.74
2019-04-10T17:55:13.398Z,11.27
2019-04-10T18:00:20.926Z,10.49
2019-04-10T18:05:18.195Z,10.02
2019-04-10T18:10:14.758Z,9.84
2019-04-10T18:15:11.490Z,9.68
2019-04-10T18:20:08.403Z,9.57
2019-04-10T18:25:05.578Z,9.39
2019-04-10T18:30:01.881Z,9.05
2019-04-10T18:34:58.454Z,9.03
2019-04-10T18:39:55.000Z,8.95
2019-04-10T18:44:51.182Z,8.71
2019-04-10T18:49:47.546Z,8.60
2019-04-10T18:54:44.243Z,8.45
2019-04-10T18:59:58.791Z,8.37
2019-04-10T19:05:09.828Z,8.23
2019-04-10T19:10:12.788Z,8.14
2019-04-10T19:15:10.728Z,7.91
2019-04-10T19:20:08.908Z,7.74
2019-04-10T19:25:08.186Z,7.67
2019-04-10T19:30:08.779Z,7.42
2019-04-10T19:35:06.626Z,7.53
2019-04-10T19:40:05.244Z,7.42
2019-04-10T19:45:05.622Z,7.52
2019-04-10T19:50:03.515Z,7.27
2019-04-10T19:54:59.692Z,7.14
2019-04-10T19:59:56.288Z,7.02
2019-04-10T20:04:56.990Z,7.06
2019-04-10T20:09:54.948Z,6.92
2019-04-10T20:14:53.248Z,6.95
2019-04-10T20:19:52.609Z,6.79
2019-04-10T20:24:50.363Z,6.71
2019-04-10T20:29:47.705Z,6.73
2019-04-10T20:34:45.245Z,6.47
2019-04-10T20:39:42.745Z,6.41
2019-04-10T20:44:39.205Z,6.30
2019-04-10T20:49:36.443Z,6.27
2019-04-10T20:54:35.040Z,6.00
2019-04-10T20:59:33.355Z,6.24
2019-04-10T21:04:34.594Z,6.17
2019-04-10T21:09:32.068Z,6.04
2019-04-10T21:14:29.670Z,5.80
2019-04-10T21:19:26.959Z,5.67
2019-04-10T21:24:23.930Z,5.73
2019-04-10T21:29:26.068Z,5.71
2019-04-10T21:34:24.327Z,5.83
2019-04-10T21:39:21.185Z,5.71
2019-04-10T21:44:18.281Z,5.65
2019-04-10T21:49:15.500Z,5.62
2019-04-10T21:54:12.478Z,5.44
2019-04-10T21:59:09.038Z,5.24
2019-04-10T22:04:06.344Z,5.44
2019-04-10T22:09:12.621Z,5.31
2019-04-10T22:14:10.923Z,5.23
2019-04-10T22:19:10.518Z,5.12
2019-04-10T22:24:07.395Z,5.05
2019-04-10T22:29:03.659Z,5.09
2019-04-10T22:34:00.755Z,5.05
2019-04-10T22:38:56.821Z,5.11
2019-04-10T22:43:52.840Z,4.98
2019-04-10T22:48:49.980Z,4.89
2019-04-10T22:53:50.994Z,4.78
2019-04-10T22:58:46.996Z,4.79
2019-04-10T23:03:43.247Z,4.80
2019-04-10T23:08:39.897Z,4.69
2019-04-10T23:13:36.249Z,4.55
2019-04-10T23:18:32.376Z,4.59
2019-04-10T23:23:30.859Z,4.62
2019-04-10T23:28:27.330Z,4.51
2019-04-10T23:33:23.902Z,4.60
2019-04-10T23:38:19.919Z,4.54
2019-04-10T23:43:18.189Z,4.48
2019-04-10T23:48:14.838Z,4.52
2019-04-10T23:53:12.021Z,4.48
2019-04-10T23:58:08.000Z,4.47
